Time,TemperatureF,DewpointF,PressureIn,WindDirection,WindDirectionDegrees,WindSpeedMPH,WindSpeedGustMPH,Humidity,HourlyPrecipIn,Conditions,Clouds,dailyrainin,SolarRadiationWatts/m^2,SoftwareType,DateUTC
2013-07-12 00:21:00,57.0,43.0,-100.00,ESE,107,1.0,4.0,60,0.00,,,0.00,1.000000,,2013-07-12 08:21:00,
2013-07-12 00:32:00,57.0,43.0,-100.00,ESE,107,1.0,4.0,60,0.00,,,0.00,1.000000,,2013-07-12 08:32:00,
2013-07-12 00:42:00,57.0,43.0,-100.00,ESE,107,1.0,4.0,60,0.00,,,0.00,1.000000,,2013-07-12 08:42:00,
2013-07-12 00:53:00,57.0,43.0,-100.00,ESE,107,1.0,4.0,60,0.00,,,0.00,1.000000,,2013-07-12 08:53:00,
2013-07-12 01:22:00,59.0,43.0,-100.00,East,89,1.0,4.0,55,0.00,,,0.00,0.000000,,2013-07-12 09:22:00,
2013-07-12 01:32:00,59.0,43.0,-100.00,East,89,1.0,4.0,55,0.00,,,0.00,0.000000,,2013-07-12 09:32:00,
2013-07-12 01:42:00,59.0,43.0,-100.00,East,89,1.0,4.0,55,0.00,,,0.00,0.000000,,2013-07-12 09:42:00,
2013-07-12 01:52:00,59.0,43.0,-100.00,East,89,1.0,4.0,55,0.00,,,0.00,0.000000,,2013-07-12 09:52:00,
2013-07-12 02:22:00,52.0,43.0,-100.00,SSW,201,1.0,3.0,71,0.00,,,0.00,0.000000,,2013-07-12 10:22:00,
2013-07-12 02:33:00,52.0,43.0,-100.00,SSW,201,1.0,3.0,71,0.00,,,0.00,0.000000,,2013-07-12 10:33:00,
2013-07-12 02:42:00,52.0,43.0,-100.00,SSW,201,1.0,3.0,71,0.00,,,0.00,0.000000,,2013-07-12 10:42:00,
2013-07-12 02:52:00,52.0,43.0,-100.00,SSW,201,1.0,3.0,71,0.00,,,0.00,0.000000,,2013-07-12 10:52:00,
2013-07-12 03:22:00,47.0,41.0,-100.00,South,171,1.0,2.0,80,0.00,,,0.00,0.000000,,2013-07-12 11:22:00,
2013-07-12 03:32:00,47.0,41.0,-100.00,South,171,1.0,2.0,80,0.00,,,0.00,0.000000,,2013-07-12 11:32:00,
2013-07-12 03:43:00,47.0,41.0,-100.00,South,171,1.0,2.0,80,0.00,,,0.00,0.000000,,2013-07-12 11:43:00,
2013-07-12 03:52:00,47.0,41.0,-100.00,South,171,1.0,2.0,80,0.00,,,0.00,0.000000,,2013-07-12 11:52:00,
2013-07-12 04:22:00,45.0,40.0,-100.00,North,350,1.0,3.0,84,0.00,,,0.00,0.000000,,2013-07-12 12:22:00,
2013-07-12 04:32:00,45.0,40.0,-100.00,North,350,1.0,3.0,84,0.00,,,0.00,0.000000,,2013-07-12 12:32:00,
2013-07-12 04:43:00,45.0,40.0,-100.00,North,350,1.0,3.0,84,0.00,,,0.00,0.000000,,2013-07-12 12:43:00,
2013-07-12 04:52:00,45.0,40.0,-100.00,North,350,1.0,3.0,84,0.00,,,0.00,0.000000,,2013-07-12 12:52:00,
2013-07-12 05:22:00,41.0,38.0,-100.00,ESE,119,1.0,3.0,90,0.00,,,0.00,5.000000,,2013-07-12 13:22:00,
2013-07-12 05:32:00,41.0,38.0,-100.00,ESE,119,1.0,3.0,90,0.00,,,0.00,5.000000,,2013-07-12 13:32:00,
2013-07-12 05:43:00,41.0,38.0,-100.00,ESE,119,1.0,3.0,90,0.00,,,0.00,5.000000,,2013-07-12 13:43:00,
2013-07-12 05:53:00,41.0,38.0,-100.00,ESE,119,1.0,3.0,90,0.00,,,0.00,5.000000,,2013-07-12 13:53:00,
2013-07-12 06:22:00,40.0,37.0,-100.00,SE,125,0.0,1.0,90,0.00,,,0.00,21.000000,,2013-07-12 14:22:00,
2013-07-12 06:32:00,40.0,37.0,-100.00,SE,125,0.0,1.0,90,0.00,,,0.00,21.000000,,2013-07-12 14:32:00,
2013-07-12 06:43:00,40.0,37.0,-100.00,SE,125,0.0,1.0,90,0.00,,,0.00,21.000000,,2013-07-12 14:43:00,
2013-07-12 06:53:00,40.0,37.0,-100.00,SE,125,0.0,1.0,90,0.00,,,0.00,21.000000,,2013-07-12 14:53:00,
2013-07-12 07:22:00,53.0,45.0,-100.00,SSW,201,0.0,1.0,75,0.00,,,0.00,154.000000,,2013-07-12 15:22:00,
2013-07-12 07:33:00,53.0,45.0,-100.00,SSW,201,0.0,1.0,75,0.00,,,0.00,154.000000,,2013-07-12 15:33:00,
2013-07-12 07:43:00,53.0,45.0,-100.00,SSW,201,0.0,1.0,75,0.00,,,0.00,154.000000,,2013-07-12 15:43:00,
2013-07-12 07:52:00,53.0,45.0,-100.00,SSW,201,0.0,1.0,75,0.00,,,0.00,154.000000,,2013-07-12 15:52:00,
2013-07-12 08:22:00,61.0,46.0,-100.00,North,1,0.0,1.0,58,0.00,,,0.00,279.000000,,2013-07-12 16:22:00,
2013-07-12 08:32:00,61.0,46.0,-100.00,North,1,0.0,1.0,58,0.00,,,0.00,279.000000,,2013-07-12 16:32:00,
2013-07-12 08:42:00,61.0,46.0,-100.00,North,1,0.0,1.0,58,0.00,,,0.00,279.000000,,2013-07-12 16:42:00,
2013-07-12 08:54:00,61.0,46.0,-100.00,North,1,0.0,1.0,58,0.00,,,0.00,279.000000,,2013-07-12 16:54:00,
2013-07-12 09:34:00,64.0,47.0,-100.00,WNW,292,2.0,3.0,53,0.00,,,0.00,448.000000,,2013-07-12 17:34:00,
2013-07-12 09:44:00,64.0,47.0,-100.00,WNW,292,2.0,3.0,53,0.00,,,0.00,448.000000,,2013-07-12 17:44:00,
2013-07-12 09:53:00,64.0,47.0,-100.00,WNW,292,2.0,3.0,53,0.00,,,0.00,448.000000,,2013-07-12 17:53:00,
2013-07-12 10:24:00,65.0,47.0,-100.00,WNW,288,3.0,6.0,52,0.00,,,0.00,532.000000,,2013-07-12 18:24:00,
2013-07-12 10:34:00,65.0,47.0,-100.00,WNW,288,3.0,6.0,52,0.00,,,0.00,532.000000,,2013-07-12 18:34:00,
2013-07-12 10:45:00,65.0,47.0,-100.00,WNW,288,3.0,6.0,52,0.00,,,0.00,532.000000,,2013-07-12 18:45:00,
2013-07-12 10:53:00,65.0,47.0,-100.00,WNW,288,3.0,6.0,52,0.00,,,0.00,532.000000,,2013-07-12 18:53:00,
2013-07-12 11:44:00,68.0,48.0,-100.00,NW,320,3.0,7.0,48,0.00,,,0.00,662.000000,,2013-07-12 19:44:00,
2013-07-12 11:53:00,68.0,48.0,-100.00,NW,320,3.0,7.0,48,0.00,,,0.00,662.000000,,2013-07-12 19:53:00,
2013-07-12 12:22:00,68.0,45.0,-100.00,NW,320,3.0,8.0,44,0.00,,,0.00,605.000000,,2013-07-12 20:22:00,
2013-07-12 12:33:00,68.0,45.0,-100.00,NW,320,3.0,8.0,44,0.00,,,0.00,605.000000,,2013-07-12 20:33:00,
2013-07-12 12:43:00,68.0,45.0,-100.00,NW,320,3.0,8.0,44,0.00,,,0.00,605.000000,,2013-07-12 20:43:00,
2013-07-12 12:53:00,68.0,45.0,-100.00,NW,320,3.0,8.0,44,0.00,,,0.00,605.000000,,2013-07-12 20:53:00,
2013-07-12 13:33:00,72.0,44.0,-100.00,North,8,3.0,9.0,36,0.00,,,-99.99,832.000000,,2013-07-12 21:33:00,
2013-07-12 13:43:00,72.0,44.0,-100.00,North,8,3.0,9.0,36,0.00,,,-99.99,832.000000,,2013-07-12 21:43:00,
2013-07-12 13:53:00,72.0,44.0,-100.00,North,8,3.0,9.0,36,0.00,,,-99.99,832.000000,,2013-07-12 21:53:00,
2013-07-12 14:43:00,74.0,42.0,-100.00,WNW,287,3.0,11.0,32,0.00,,,0.00,871.000000,,2013-07-12 22:43:00,
2013-07-12 14:53:00,74.0,42.0,-100.00,WNW,287,3.0,11.0,32,0.00,,,0.00,871.000000,,2013-07-12 22:53:00,
2013-07-12 15:22:00,75.0,41.0,-100.00,NNW,335,3.0,11.0,30,0.00,,,0.00,840.000000,,2013-07-12 23:22:00,
2013-07-12 15:33:00,75.0,41.0,-100.00,NNW,335,3.0,11.0,30,0.00,,,0.00,840.000000,,2013-07-12 23:33:00,
2013-07-12 15:42:00,75.0,41.0,-100.00,NNW,335,3.0,11.0,30,0.00,,,0.00,840.000000,,2013-07-12 23:42:00,
2013-07-12 15:53:00,75.0,41.0,-100.00,NNW,335,3.0,11.0,30,0.00,,,0.00,840.000000,,2013-07-12 23:53:00,
2013-07-12 16:45:00,77.0,40.0,-100.00,SW,223,3.0,10.0,27,0.00,,,0.00,804.000000,,2013-07-13 00:45:00,
2013-07-12 16:53:00,77.0,40.0,-100.00,SW,223,3.0,10.0,27,0.00,,,0.00,804.000000,,2013-07-13 00:53:00,
2013-07-12 17:24:00,74.0,41.0,-100.00,NNE,30,2.0,9.0,30,0.00,,,0.00,382.000000,,2013-07-13 01:24:00,
2013-07-12 17:44:00,74.0,41.0,-100.00,NNE,30,2.0,9.0,30,0.00,,,0.00,382.000000,,2013-07-13 01:44:00,
2013-07-12 18:22:00,78.0,37.0,-100.00,NNE,28,3.0,7.0,23,0.00,,,0.00,513.000000,,2013-07-13 02:22:00,
2013-07-12 18:35:00,78.0,37.0,-100.00,NNE,28,3.0,7.0,23,0.00,,,0.00,513.000000,,2013-07-13 02:35:00,
2013-07-12 18:44:00,78.0,37.0,-100.00,NNE,28,3.0,7.0,23,0.00,,,0.00,513.000000,,2013-07-13 02:44:00,
2013-07-12 18:53:00,78.0,37.0,-100.00,NNE,28,3.0,7.0,23,0.00,,,0.00,513.000000,,2013-07-13 02:53:00,
2013-07-12 19:24:00,76.0,39.0,-100.00,NNE,26,5.0,10.0,26,0.00,,,0.00,459.000000,,2013-07-13 03:24:00,
2013-07-12 19:34:00,76.0,39.0,-100.00,NNE,26,5.0,10.0,26,0.00,,,0.00,459.000000,,2013-07-13 03:34:00,
2013-07-12 19:44:00,76.0,39.0,-100.00,NNE,26,5.0,10.0,26,0.00,,,0.00,459.000000,,2013-07-13 03:44:00,
2013-07-12 20:22:00,76.0,46.0,-100.00,West,260,2.0,9.0,34,0.00,,,0.00,316.000000,,2013-07-13 04:22:00,
2013-07-12 20:32:00,76.0,46.0,-100.00,West,260,2.0,9.0,34,0.00,,,0.00,316.000000,,2013-07-13 04:32:00,
2013-07-12 20:43:00,76.0,46.0,-100.00,West,260,2.0,9.0,34,0.00,,,0.00,316.000000,,2013-07-13 04:43:00,
2013-07-12 20:52:00,76.0,46.0,-100.00,West,260,2.0,9.0,34,0.00,,,0.00,316.000000,,2013-07-13 04:52:00,
2013-07-12 21:42:00,72.0,44.0,-100.00,SW,223,0.0,8.0,37,0.00,,,0.00,196.000000,,2013-07-13 05:42:00,
2013-07-12 21:52:00,72.0,44.0,-100.00,SW,223,0.0,8.0,37,0.00,,,0.00,196.000000,,2013-07-13 05:52:00,
2013-07-12 22:43:00,64.0,47.0,-100.00,SE,127,2.0,5.0,53,-99.99,,,0.00,58.000000,,2013-07-13 06:43:00,
2013-07-12 22:52:00,64.0,47.0,-100.00,SE,127,2.0,5.0,53,-99.99,,,0.00,58.000000,,2013-07-13 06:52:00,
2013-07-12 23:22:00,61.0,42.0,-100.00,East,90,2.0,8.0,50,0.00,,,0.00,17.000000,,2013-07-13 07:22:00,
2013-07-12 23:33:00,61.0,42.0,-100.00,East,90,2.0,8.0,50,0.00,,,0.00,17.000000,,2013-07-13 07:33:00,
2013-07-12 23:44:00,61.0,42.0,-100.00,East,90,2.0,8.0,50,0.00,,,0.00,17.000000,,2013-07-13 07:44:00,
2013-07-12 23:53:00,61.0,42.0,-100.00,East,90,2.0,8.0,50,0.00,,,0.00,17.000000,,2013-07-13 07:53:00,